Time;durP1;ratioP1;P1;durP2;ratioP2;P2;SDS_P1;SDS_P2;PMS_P1;PMS_P2;Temp;Humidity;BMP_temperature;BMP_pressure;BME280_temperature;BME280_humidity;BME280_pressure;Samples;Min_cycle;Max_cycle;Signal;HPM_P1;HPM_P2
2023/12/19 00:00:10;;;;;;;28.17;19.67;;;21.20;56.50;;;;;;5091887;28;20181;-67
2023/12/19 00:02:36;;;;;;;29.27;20.80;;;21.30;56.50;;;;;;5091008;28;20177;-66
2023/12/19 00:05:02;;;;;;;30.30;19.93;;;21.30;56.50;;;;;;5091033;28;20455;-68
2023/12/19 00:07:29;;;;;;;24.97;17.03;;;21.20;56.50;;;;;;5091350;28;20189;-67
2023/12/19 00:09:55;;;;;;;27.90;18.60;;;21.20;56.50;;;;;;5089696;28;20504;-67
2023/12/19 00:12:20;;;;;;;29.13;18.87;;;21.20;56.50;;;;;;5091405;28;20486;-67
2023/12/19 00:14:46;;;;;;;28.60;19.53;;;21.20;56.50;;;;;;5091308;28;20178;-67
2023/12/19 00:17:12;;;;;;;26.03;17.67;;;21.20;56.50;;;;;;5089335;28;20217;-67
2023/12/19 00:19:37;;;;;;;26.60;18.10;;;21.20;56.50;;;;;;5091804;28;20166;-67
2023/12/19 00:22:03;;;;;;;26.00;18.60;;;21.20;56.50;;;;;;5091220;28;20181;-67
2023/12/19 00:24:28;;;;;;;25.47;16.33;;;21.20;56.50;;;;;;5091155;28;20672;-67
2023/12/19 00:26:54;;;;;;;25.90;18.53;;;21.20;56.50;;;;;;5090896;28;20229;-67
2023/12/19 00:29:20;;;;;;;25.93;17.27;;;21.20;56.50;;;;;;5092113;28;20170;-67
2023/12/19 00:31:45;;;;;;;24.33;17.63;;;21.20;56.50;;;;;;5095154;28;20219;-67
2023/12/19 00:34:12;;;;;;;26.33;17.70;;;21.20;56.50;;;;;;5093415;28;20311;-67
2023/12/19 00:36:37;;;;;;;27.83;18.43;;;21.20;56.50;;;;;;5094669;28;20232;-67
2023/12/19 00:39:06;;;;;;;25.37;17.50;;;21.20;56.50;;;;;;5094864;28;20450;-67
2023/12/19 00:41:31;;;;;;;24.00;17.43;;;21.20;56.50;;;;;;5094391;28;20656;-67
2023/12/19 00:43:57;;;;;;;25.27;17.87;;;21.20;56.50;;;;;;5094559;28;20456;-66
2023/12/19 00:46:23;;;;;;;24.37;17.73;;;21.20;56.50;;;;;;5094707;28;20196;-68
2023/12/19 00:48:48;;;;;;;24.07;18.20;;;21.20;56.50;;;;;;5094996;28;20265;-68
2023/12/19 00:51:14;;;;;;;22.80;15.90;;;21.20;56.50;;;;;;5094504;28;20174;-68
2023/12/19 00:53:41;;;;;;;21.70;16.67;;;21.20;56.50;;;;;;5094501;28;20217;-68
2023/12/19 00:56:09;;;;;;;22.83;15.43;;;21.20;56.50;;;;;;5094357;28;20725;-68
2023/12/19 00:58:36;;;;;;;23.70;15.50;;;21.20;56.50;;;;;;5094228;28;20404;-67
2023/12/19 01:01:02;;;;;;;25.33;17.50;;;21.20;56.50;;;;;;5092942;28;20455;-68
2023/12/19 01:03:28;;;;;;;23.63;16.93;;;21.20;56.50;;;;;;5094339;28;20460;-68
2023/12/19 01:05:54;;;;;;;25.93;17.70;;;21.20;56.50;;;;;;5092832;28;20459;-68
2023/12/19 01:08:19;;;;;;;23.10;16.07;;;21.20;56.50;;;;;;5094217;28;20170;-67
2023/12/19 01:10:45;;;;;;;21.60;16.60;;;21.20;56.50;;;;;;5094277;28;20176;-67
2023/12/19 01:13:11;;;;;;;25.30;16.33;;;21.20;56.50;;;;;;5094050;28;20242;-67
2023/12/19 01:15:36;;;;;;;22.87;16.43;;;21.20;56.50;;;;;;5094124;28;20176;-67
2023/12/19 01:18:02;;;;;;;25.33;16.20;;;21.20;56.50;;;;;;5093483;28;20530;-67
2023/12/19 01:20:27;;;;;;;25.20;16.00;;;21.20;56.50;;;;;;5093740;28;20252;-67
2023/12/19 01:22:53;;;;;;;25.80;16.70;;;21.20;56.50;;;;;;5093800;28;20231;-67
2023/12/19 01:25:18;;;;;;;22.03;15.90;;;21.20;56.50;;;;;;5093587;28;20193;-67
2023/12/19 01:27:44;;;;;;;22.50;15.40;;;21.20;56.50;;;;;;5093404;28;20186;-67
2023/12/19 01:30:10;;;;;;;24.10;14.93;;;21.20;56.50;;;;;;5093845;28;20166;-67
2023/12/19 01:32:36;;;;;;;21.33;15.97;;;21.20;56.50;;;;;;5093724;28;20192;-67
2023/12/19 01:35:02;;;;;;;23.83;15.87;;;21.20;56.50;;;;;;5093839;28;20465;-68
2023/12/19 01:37:27;;;;;;;22.07;15.23;;;21.20;56.50;;;;;;5093279;28;20268;-67
2023/12/19 01:39:53;;;;;;;21.30;15.70;;;21.20;56.50;;;;;;5093047;28;20174;-68
2023/12/19 01:42:18;;;;;;;19.87;14.80;;;21.10;56.40;;;;;;5093213;28;20204;-67
2023/12/19 01:45:06;;;;;;;22.70;15.87;;;21.20;56.50;;;;;;5093039;28;20224;-66
2023/12/19 01:47:31;;;;;;;25.23;15.93;;;21.20;56.50;;;;;;5093388;28;20221;-67
2023/12/19 01:49:57;;;;;;;19.20;15.00;;;21.10;56.40;;;;;;5093573;28;20443;-68
2023/12/19 01:52:23;;;;;;;27.20;15.40;;;21.10;56.50;;;;;;5093016;28;20197;-67
2023/12/19 01:54:48;;;;;;;20.73;15.20;;;21.10;56.50;;;;;;5093439;28;20228;-67
2023/12/19 01:57:14;;;;;;;19.83;14.93;;;21.10;56.50;;;;;;5092919;28;20267;-67
2023/12/19 01:59:40;;;;;;;21.13;14.20;;;21.10;56.50;;;;;;5093424;28;20181;-67
2023/12/19 02:02:05;;;;;;;18.97;14.00;;;21.10;56.50;;;;;;5092874;28;20901;-68
2023/12/19 02:04:31;;;;;;;20.00;14.80;;;21.10;56.40;;;;;;5093013;28;20236;-67
2023/12/19 02:06:57;;;;;;;22.50;15.53;;;21.10;56.50;;;;;;5092996;28;20185;-67
2023/12/19 02:09:23;;;;;;;24.20;13.67;;;21.10;56.50;;;;;;5092957;28;20560;-67
2023/12/19 02:11:48;;;;;;;20.77;14.53;;;21.10;56.50;;;;;;5092895;28;20701;-67
2023/12/19 02:14:14;;;;;;;22.60;15.10;;;21.10;56.50;;;;;;5093033;28;20404;-68
2023/12/19 02:16:40;;;;;;;21.03;14.70;;;21.10;56.50;;;;;;5092532;28;20246;-67
2023/12/19 02:19:06;;;;;;;21.93;14.60;;;21.10;56.50;;;;;;5092705;28;20194;-66
2023/12/19 02:21:32;;;;;;;20.40;14.17;;;21.10;56.50;;;;;;5091187;28;20185;-68
2023/12/19 02:23:58;;;;;;;19.70;13.27;;;21.10;56.50;;;;;;5092667;28;20488;-66
2023/12/19 02:26:24;;;;;;;18.00;13.70;;;21.10;56.50;;;;;;5092479;28;20415;-67
2023/12/19 02:28:52;;;;;;;19.23;14.13;;;21.10;56.50;;;;;;5092388;28;20754;-67
2023/12/19 02:31:21;;;;;;;21.70;13.87;;;21.10;56.50;;;;;;5092392;28;20412;-68
2023/12/19 02:33:47;;;;;;;22.83;14.17;;;21.10;56.50;;;;;;5092500;28;20855;-67
2023/12/19 02:36:13;;;;;;;20.87;14.37;;;21.10;56.50;;;;;;5092549;28;20573;-67
2023/12/19 02:38:39;;;;;;;22.00;13.50;;;21.10;56.50;;;;;;5091054;28;20173;-67
2023/12/19 02:41:04;;;;;;;19.73;13.63;;;21.10;56.50;;;;;;5092202;28;20411;-68
2023/12/19 02:43:30;;;;;;;19.60;14.77;;;21.10;56.50;;;;;;5092265;28;20174;-66
2023/12/19 02:45:55;;;;;;;19.50;13.43;;;21.10;56.50;;;;;;5092061;28;20288;-67
2023/12/19 02:48:21;;;;;;;17.93;13.70;;;21.10;56.50;;;;;;5092187;28;20640;-67
2023/12/19 02:50:47;;;;;;;22.50;14.57;;;21.10;56.50;;;;;;5092384;28;20235;-67
2023/12/19 02:53:12;;;;;;;20.93;14.10;;;21.10;56.50;;;;;;5091541;28;20165;-68
2023/12/19 02:55:38;;;;;;;18.57;13.57;;;21.00;56.40;;;;;;5091952;28;20681;-67
2023/12/19 02:58:03;;;;;;;21.63;14.47;;;21.00;56.40;;;;;;5091873;28;20225;-67
2023/12/19 03:00:29;;;;;;;20.13;13.30;;;21.00;56.50;;;;;;5091967;28;20173;-66
2023/12/19 03:02:58;;;;;;;17.67;12.80;;;21.00;56.40;;;;;;5091670;28;20173;-66
2023/12/19 03:05:24;;;;;;;19.17;12.77;;;21.00;56.40;;;;;;5091953;28;20202;-67
2023/12/19 03:07:50;;;;;;;17.63;13.27;;;21.10;56.50;;;;;;5091848;28;20431;-67
2023/12/19 03:10:16;;;;;;;18.73;13.90;;;21.10;56.50;;;;;;5091609;28;20220;-68
2023/12/19 03:12:41;;;;;;;20.17;12.90;;;21.00;56.50;;;;;;5091789;28;20602;-68
2023/12/19 03:15:07;;;;;;;19.47;13.20;;;21.00;56.40;;;;;;5091687;28;20659;-67
2023/12/19 03:17:33;;;;;;;16.33;13.03;;;21.00;56.40;;;;;;5091522;28;20216;-67
2023/12/19 03:19:59;;;;;;;18.57;13.20;;;21.00;56.40;;;;;;5091188;28;20412;-67
2023/12/19 03:22:24;;;;;;;18.13;12.83;;;21.00;56.40;;;;;;5090976;28;20692;-67
2023/12/19 03:24:50;;;;;;;19.93;12.50;;;21.00;56.50;;;;;;5090573;28;20205;-67
2023/12/19 03:27:16;;;;;;;18.60;13.30;;;21.00;56.40;;;;;;5090501;28;20182;-67
2023/12/19 03:29:42;;;;;;;19.17;13.03;;;21.00;56.40;;;;;;5090667;28;20215;-67
2023/12/19 03:32:08;;;;;;;16.70;13.23;;;21.00;56.40;;;;;;5090583;28;20406;-67
2023/12/19 03:34:36;;;;;;;16.23;12.30;;;21.00;56.40;;;;;;5090633;28;20494;-66
2023/12/19 03:37:01;;;;;;;15.07;11.43;;;21.00;56.40;;;;;;5090435;28;20216;-68
2023/12/19 03:39:27;;;;;;;17.77;12.07;;;21.00;56.40;;;;;;5091227;28;20451;-67
2023/12/19 03:41:52;;;;;;;16.60;11.60;;;21.00;56.40;;;;;;5090425;28;20656;-67
2023/12/19 03:44:18;;;;;;;14.53;11.40;;;21.00;56.50;;;;;;5089654;28;20201;-67
2023/12/19 03:46:43;;;;;;;17.53;12.87;;;21.00;56.40;;;;;;5090551;28;20219;-67
2023/12/19 03:49:09;;;;;;;15.00;11.97;;;21.00;56.50;;;;;;5089464;28;20190;-67
2023/12/19 03:51:35;;;;;;;17.87;12.97;;;21.00;56.40;;;;;;5090608;28;20229;-67
2023/12/19 03:54:00;;;;;;;18.00;12.80;;;21.00;56.40;;;;;;5090481;28;20174;-66
2023/12/19 03:56:26;;;;;;;19.03;12.40;;;21.00;56.40;;;;;;5090538;28;20189;-67
2023/12/19 03:58:51;;;;;;;15.90;12.13;;;21.00;56.40;;;;;;5090652;28;20174;-67
2023/12/19 04:01:20;;;;;;;17.03;12.47;;;21.00;56.40;;;;;;5090819;28;20162;-67
2023/12/19 04:03:46;;;;;;;15.10;11.17;;;21.00;56.40;;;;;;5092357;28;20166;-67
2023/12/19 04:06:12;;;;;;;17.90;12.30;;;21.00;56.40;;;;;;5094587;28;20455;-67
2023/12/19 04:08:38;;;;;;;15.97;11.67;;;21.00;56.40;;;;;;5094412;28;20161;-67
2023/12/19 04:11:03;;;;;;;17.20;11.17;;;21.00;56.40;;;;;;5094597;28;20414;-68
2023/12/19 04:13:29;;;;;;;13.73;10.43;;;21.00;56.40;;;;;;5094484;28;20173;-67
2023/12/19 04:15:55;;;;;;;20.40;12.20;;;21.00;56.40;;;;;;5094625;28;20557;-68
2023/12/19 04:18:20;;;;;;;19.17;12.27;;;21.00;56.50;;;;;;5094262;28;20968;-67
2023/12/19 04:20:46;;;;;;;13.33;11.20;;;21.00;56.40;;;;;;5094261;28;20250;-68
2023/12/19 04:23:12;;;;;;;14.97;11.47;;;21.00;56.50;;;;;;5094367;28;20238;-68
2023/12/19 04:25:37;;;;;;;15.23;11.73;;;21.00;56.50;;;;;;5094236;28;20197;-67
2023/12/19 04:28:03;;;;;;;14.80;11.30;;;21.00;56.50;;;;;;5094434;28;20531;-68
2023/12/19 04:30:29;;;;;;;16.33;11.90;;;20.90;56.40;;;;;;5082293;28;20179;-67
2023/12/19 04:32:54;;;;;;;19.13;12.30;;;21.00;56.50;;;;;;5073909;28;20184;-67
2023/12/19 04:35:20;;;;;;;14.50;10.43;;;21.00;56.50;;;;;;5073764;28;20178;-68
2023/12/19 04:37:46;;;;;;;16.83;12.40;;;21.00;56.50;;;;;;5073595;28;20722;-67
2023/12/19 04:40:12;;;;;;;13.53;10.80;;;21.00;56.50;;;;;;5073888;28;20186;-68
2023/12/19 04:42:38;;;;;;;16.43;10.80;;;20.90;56.40;;;;;;5072316;28;20182;-68
2023/12/19 04:45:05;;;;;;;13.70;10.00;;;21.00;56.50;;;;;;5072290;28;20466;-68
2023/12/19 04:47:30;;;;;;;13.90;11.03;;;21.00;56.50;;;;;;5073626;28;20578;-67
2023/12/19 04:49:56;;;;;;;13.57;9.93;;;20.90;56.40;;;;;;5073768;28;20415;-67
2023/12/19 04:52:22;;;;;;;15.73;11.17;;;20.90;56.40;;;;;;5073844;28;20632;-67
2023/12/19 04:54:48;;;;;;;14.10;10.87;;;20.90;56.40;;;;;;5073229;28;20255;-68
2023/12/19 04:57:13;;;;;;;13.00;10.00;;;21.00;56.50;;;;;;5073340;28;20198;-68
2023/12/19 04:59:39;;;;;;;13.73;10.30;;;20.90;56.40;;;;;;5073749;28;20209;-68
2023/12/19 05:02:05;;;;;;;12.40;11.00;;;21.00;56.50;;;;;;5073343;28;20700;-68
2023/12/19 05:04:30;;;;;;;14.60;9.90;;;21.00;56.50;;;;;;5073417;28;20676;-67
2023/12/19 05:06:56;;;;;;;13.47;10.90;;;21.00;56.50;;;;;;5071861;28;20569;-68
2023/12/19 05:09:22;;;;;;;11.53;9.73;;;21.00;56.50;;;;;;5073377;28;20253;-68
2023/12/19 05:11:47;;;;;;;11.97;10.37;;;21.00;56.60;;;;;;5072148;28;20679;-68
2023/12/19 05:14:13;;;;;;;12.97;9.90;;;21.00;56.50;;;;;;5073305;28;20670;-68
2023/12/19 05:16:38;;;;;;;14.17;10.43;;;21.00;56.40;;;;;;5072815;28;20198;-67
2023/12/19 05:19:04;;;;;;;16.10;9.80;;;21.00;56.40;;;;;;5071613;28;20558;-69
2023/12/19 05:21:36;;;;;;;12.10;9.90;;;21.00;56.40;;;;;;5071285;28;20185;-68
2023/12/19 05:24:01;;;;;;;14.47;10.77;;;21.00;56.40;;;;;;5072902;28;20530;-67
2023/12/19 05:26:27;;;;;;;15.10;9.90;;;21.00;56.40;;;;;;5072844;28;20427;-68
2023/12/19 05:28:54;;;;;;;14.70;11.63;;;21.00;56.40;;;;;;5072832;28;20544;-68
2023/12/19 05:31:20;;;;;;;16.23;10.27;;;21.00;56.40;;;;;;5071869;28;20162;-67
2023/12/19 05:33:46;;;;;;;12.77;9.87;;;21.00;56.40;;;;;;5071750;28;20393;-69
2023/12/19 05:36:13;;;;;;;14.03;10.00;;;21.00;56.40;;;;;;5073367;28;20194;-68
2023/12/19 05:38:38;;;;;;;9.67;8.07;;;21.00;56.30;;;;;;5074607;28;20796;-68
2023/12/19 05:41:05;;;;;;;12.33;9.20;;;21.00;56.10;;;;;;5091006;28;20913;-69
2023/12/19 05:43:31;;;;;;;9.90;8.10;;;21.00;55.70;;;;;;5091859;28;20971;-67
2023/12/19 05:45:56;;;;;;;10.77;7.47;;;21.00;55.60;;;;;;5089954;28;20460;-68
2023/12/19 05:48:22;;;;;;;11.63;7.63;;;21.00;55.50;;;;;;5092331;28;20404;-69
2023/12/19 05:50:49;;;;;;;11.27;8.50;;;21.00;55.40;;;;;;5091499;28;20527;-68
2023/12/19 05:53:14;;;;;;;10.67;8.47;;;21.00;55.40;;;;;;5074660;28;20763;-69
2023/12/19 05:55:40;;;;;;;11.67;8.83;;;20.90;55.50;;;;;;5092901;28;20408;-68
2023/12/19 05:58:06;;;;;;;12.37;9.00;;;20.90;55.60;;;;;;5091511;28;20193;-68
2023/12/19 06:00:32;;;;;;;11.13;9.00;;;21.00;55.80;;;;;;5092770;28;20709;-68
2023/12/19 06:02:57;;;;;;;11.70;8.80;;;21.00;55.90;;;;;;5092595;28;20261;-68
2023/12/19 06:05:24;;;;;;;11.93;8.47;;;21.00;55.90;;;;;;5093062;28;20596;-69
2023/12/19 06:07:49;;;;;;;12.07;9.07;;;20.90;55.90;;;;;;5091411;28;20264;-69
2023/12/19 06:10:15;;;;;;;9.37;8.17;;;21.00;56.10;;;;;;5092828;28;20422;-68
2023/12/19 06:12:41;;;;;;;13.13;7.97;;;21.00;56.10;;;;;;5090374;28;20299;-69
2023/12/19 06:15:12;;;;;;;11.63;7.80;;;20.90;56.00;;;;;;5073219;28;20184;-68
2023/12/19 06:17:42;;;;;;;8.63;7.67;;;21.00;56.10;;;;;;5091481;28;20205;-69
2023/12/19 06:20:10;;;;;;;13.30;9.30;;;21.00;56.20;;;;;;5090174;28;20502;-69
2023/12/19 06:22:36;;;;;;;9.13;7.77;;;20.90;56.10;;;;;;5091693;28;20408;-69
2023/12/19 06:25:02;;;;;;;11.20;8.07;;;21.00;56.20;;;;;;5091266;28;20448;-69
2023/12/19 06:27:28;;;;;;;8.60;7.40;;;21.00;56.30;;;;;;5090072;28;20964;-68
2023/12/19 06:29:56;;;;;;;11.57;8.27;;;21.00;56.30;;;;;;5091362;28;20158;-69
2023/12/19 06:32:22;;;;;;;9.30;7.50;;;21.00;56.30;;;;;;5091279;28;20184;-69
2023/12/19 06:34:47;;;;;;;11.17;8.73;;;21.10;56.30;;;;;;5091265;28;20494;-68
2023/12/19 06:37:13;;;;;;;11.23;8.17;;;21.10;56.30;;;;;;5089773;28;20197;-68
2023/12/19 06:39:39;;;;;;;11.27;7.63;;;21.10;56.30;;;;;;5091141;28;20277;-69
2023/12/19 06:42:05;;;;;;;10.47;8.37;;;21.10;56.30;;;;;;5090966;28;20169;-69
2023/12/19 06:44:31;;;;;;;9.77;7.43;;;21.10;56.30;;;;;;5091249;28;20551;-67
2023/12/19 06:46:56;;;;;;;10.00;7.63;;;21.10;56.30;;;;;;5090855;28;20873;-68
2023/12/19 06:49:22;;;;;;;10.27;8.10;;;21.20;56.40;;;;;;5091004;28;20259;-69
2023/12/19 06:51:48;;;;;;;9.07;6.77;;;21.20;56.30;;;;;;5090860;28;20166;-68
2023/12/19 06:54:14;;;;;;;9.27;7.07;;;21.20;56.30;;;;;;5090703;28;20415;-69
2023/12/19 06:56:40;;;;;;;7.83;7.03;;;21.20;56.30;;;;;;5090763;28;20190;-68
2023/12/19 06:59:06;;;;;;;10.10;6.90;;;21.30;56.40;;;;;;5089375;28;20169;-68
2023/12/19 07:01:32;;;;;;;11.80;7.80;;;21.30;56.30;;;;;;5091202;28;20420;-69
2023/12/19 07:03:57;;;;;;;7.67;6.33;;;21.30;56.30;;;;;;5090600;28;20412;-67
2023/12/19 07:06:23;;;;;;;10.53;6.57;;;21.30;56.30;;;;;;5090852;28;20282;-69
2023/12/19 07:08:50;;;;;;;9.20;6.60;;;21.30;56.20;;;;;;5090592;28;20173;-68
2023/12/19 07:11:16;;;;;;;8.57;6.50;;;21.30;56.20;;;;;;5090817;28;20176;-68
2023/12/19 07:13:43;;;;;;;9.17;7.10;;;21.30;56.20;;;;;;5090513;28;20408;-69
2023/12/19 07:16:17;;;;;;;8.73;6.93;;;21.30;56.20;;;;;;5090374;28;20430;-68
2023/12/19 07:18:44;;;;;;;11.10;7.53;;;21.30;56.20;;;;;;5090327;28;20434;-68
2023/12/19 07:21:23;;;;;;;8.13;6.90;;;21.40;56.20;;;;;;5090403;28;20404;-68
2023/12/19 07:23:50;;;;;;;8.37;6.70;;;21.40;56.30;;;;;;5090496;28;20412;-68
2023/12/19 07:26:27;;;;;;;10.73;7.40;;;21.30;56.20;;;;;;5090239;28;20981;-68
2023/12/19 07:28:57;;;;;;;7.93;6.67;;;21.40;56.20;;;;;;5090353;28;20395;-69
2023/12/19 07:31:27;;;;;;;10.60;6.83;;;21.40;56.20;;;;;;5090338;28;20404;-69
2023/12/19 07:33:58;;;;;;;8.20;6.23;;;21.40;56.20;;;;;;5090282;28;20773;-68
2023/12/19 07:36:25;;;;;;;8.60;6.40;;;21.40;56.20;;;;;;5090286;28;20424;-68
2023/12/19 07:38:51;;;;;;;8.60;6.70;;;21.40;56.20;;;;;;5089856;28;20438;-68
2023/12/19 07:41:17;;;;;;;7.70;6.30;;;21.40;56.20;;;;;;5090304;28;20407;-67
2023/12/19 07:43:43;;;;;;;10.93;6.90;;;21.40;56.20;;;;;;5090248;28;20426;-67
2023/12/19 07:46:09;;;;;;;9.30;6.90;;;21.40;56.20;;;;;;5090194;28;20276;-67
2023/12/19 07:48:35;;;;;;;7.20;6.03;;;21.40;56.20;;;;;;5090145;28;20176;-68
2023/12/19 07:51:00;;;;;;;9.37;6.40;;;21.40;56.10;;;;;;5090224;28;20408;-67
2023/12/19 07:53:26;;;;;;;8.60;5.80;;;21.40;56.10;;;;;;5090044;28;20165;-69
2023/12/19 07:55:52;;;;;;;8.17;5.50;;;21.50;56.20;;;;;;5089947;28;20169;-68
2023/12/19 07:58:18;;;;;;;7.23;5.83;;;21.50;56.20;;;;;;5090191;28;20410;-68
2023/12/19 08:00:44;;;;;;;7.63;5.80;;;21.50;56.20;;;;;;5088765;28;20169;-69
2023/12/19 08:03:11;;;;;;;8.67;6.03;;;21.50;56.20;;;;;;5090042;28;20791;-69
2023/12/19 08:05:36;;;;;;;8.20;6.37;;;21.50;56.20;;;;;;5089950;28;20199;-68
2023/12/19 08:08:03;;;;;;;8.30;5.50;;;21.50;56.10;;;;;;5089974;28;20427;-68
2023/12/19 08:10:28;;;;;;;6.80;6.10;;;21.50;56.10;;;;;;5090083;28;20644;-68
2023/12/19 08:12:54;;;;;;;7.60;6.00;;;21.50;56.10;;;;;;5089918;28;20409;-68
2023/12/19 08:15:20;;;;;;;9.20;6.20;;;21.50;56.10;;;;;;5090044;28;20218;-69
2023/12/19 08:17:46;;;;;;;6.37;5.57;;;21.50;56.20;;;;;;5089714;28;20957;-67
2023/12/19 08:20:15;;;;;;;6.80;6.03;;;21.50;56.10;;;;;;5089923;28;20174;-69
2023/12/19 08:22:41;;;;;;;7.10;6.23;;;21.50;56.10;;;;;;5090152;28;20184;-68
2023/12/19 08:25:08;;;;;;;7.20;5.87;;;21.50;56.10;;;;;;5089849;28;20550;-68
2023/12/19 08:27:35;;;;;;;9.00;5.70;;;21.50;56.10;;;;;;5089789;28;20429;-68
2023/12/19 08:30:04;;;;;;;6.40;5.33;;;21.50;56.10;;;;;;5090117;28;20488;-66
2023/12/19 08:32:30;;;;;;;6.37;5.70;;;21.50;56.10;;;;;;5089691;28;20403;-67
2023/12/19 08:34:58;;;;;;;8.20;6.00;;;21.50;56.10;;;;;;5089617;28;20433;-67
2023/12/19 08:37:27;;;;;;;8.00;5.13;;;21.50;56.20;;;;;;5089586;28;20420;-66
2023/12/19 08:39:57;;;;;;;8.50;6.03;;;21.50;56.10;;;;;;5089876;28;20454;-67
2023/12/19 08:42:23;;;;;;;6.40;5.30;;;21.50;56.20;;;;;;5089627;28;20411;-66
2023/12/19 08:44:50;;;;;;;7.53;5.47;;;21.50;56.20;;;;;;5089809;28;21008;-66
2023/12/19 08:47:17;;;;;;;7.87;5.93;;;21.50;56.20;;;;;;5089509;28;20430;-65
2023/12/19 08:49:43;;;;;;;6.07;5.47;;;21.50;56.20;;;;;;5089687;28;20585;-66
2023/12/19 08:52:09;;;;;;;7.03;5.20;;;21.50;56.20;;;;;;5093188;28;20459;-66
2023/12/19 08:54:35;;;;;;;6.13;5.40;;;21.50;56.20;;;;;;5093118;28;20407;-66
2023/12/19 08:57:01;;;;;;;8.17;5.37;;;21.50;56.20;;;;;;5091685;28;20444;-66
2023/12/19 08:59:27;;;;;;;7.47;6.17;;;21.50;56.20;;;;;;5093011;28;20419;-66
2023/12/19 09:01:53;;;;;;;6.27;5.53;;;21.50;56.20;;;;;;5093033;28;20818;-66
2023/12/19 09:04:21;;;;;;;8.40;6.20;;;21.50;56.20;;;;;;5092986;28;20178;-65
2023/12/19 09:06:47;;;;;;;5.93;5.03;;;21.50;56.20;;;;;;5093054;28;20439;-67
2023/12/19 09:09:14;;;;;;;6.63;5.57;;;21.50;56.20;;;;;;5092894;28;20411;-66
2023/12/19 09:11:39;;;;;;;7.13;6.00;;;21.50;56.20;;;;;;5092810;28;20416;-66
2023/12/19 09:14:05;;;;;;;6.43;5.00;;;21.50;56.20;;;;;;5093034;28;20761;-69
2023/12/19 09:16:32;;;;;;;6.63;4.77;;;21.50;56.20;;;;;;5092767;28;20193;-68
2023/12/19 09:18:59;;;;;;;6.27;4.90;;;21.50;56.20;;;;;;5092610;28;20209;-69
2023/12/19 09:21:26;;;;;;;6.93;5.60;;;21.50;56.20;;;;;;5092905;28;21021;-68
2023/12/19 09:23:52;;;;;;;8.63;5.70;;;21.50;56.80;;;;;;5092765;28;20410;-68
2023/12/19 09:26:18;;;;;;;5.90;4.30;;;21.50;56.20;;;;;;5092362;28;21033;-68
2023/12/19 09:28:43;;;;;;;5.63;4.77;;;21.50;56.20;;;;;;5092577;28;20407;-69
2023/12/19 09:31:09;;;;;;;5.70;5.07;;;21.50;56.30;;;;;;5092514;28;20173;-68
2023/12/19 09:33:38;;;;;;;6.60;5.20;;;21.50;56.20;;;;;;5092425;28;20705;-69
2023/12/19 09:36:07;;;;;;;6.77;4.90;;;21.50;56.20;;;;;;5090965;28;20554;-68
2023/12/19 09:38:33;;;;;;;6.90;5.37;;;21.50;56.30;;;;;;5092276;28;20436;-68
2023/12/19 09:40:58;;;;;;;6.00;4.90;;;21.50;56.30;;;;;;5092247;28;20442;-67
2023/12/19 09:43:24;;;;;;;6.70;5.30;;;21.50;56.20;;;;;;5092242;28;20178;-69
2023/12/19 09:45:50;;;;;;;7.50;5.73;;;21.50;56.30;;;;;;5092042;28;20225;-69
2023/12/19 09:48:18;;;;;;;6.27;5.60;;;21.50;56.30;;;;;;5092434;28;20563;-68
2023/12/19 09:50:47;;;;;;;7.87;5.27;;;21.50;56.30;;;;;;5092151;28;20906;-69
2023/12/19 09:53:15;;;;;;;5.67;4.73;;;21.50;56.30;;;;;;5092089;28;20827;-68
2023/12/19 09:55:44;;;;;;;6.60;4.33;;;21.50;56.30;;;;;;5092114;28;20474;-68
2023/12/19 09:58:12;;;;;;;7.10;5.83;;;21.50;56.30;;;;;;5091960;28;20400;-68
2023/12/19 10:00:44;;;;;;;5.53;4.90;;;21.50;56.30;;;;;;5091967;28;20507;-68
2023/12/19 10:03:10;;;;;;;5.90;4.50;;;21.50;56.80;;;;;;5092021;28;20478;-68
2023/12/19 10:05:36;;;;;;;6.00;4.57;;;21.50;56.30;;;;;;5091768;28;20549;-68
2023/12/19 10:08:01;;;;;;;6.53;5.13;;;21.50;56.30;;;;;;5091742;28;20431;-69
2023/12/19 10:10:51;;;;;;;6.10;5.20;;;21.50;56.30;;;;;;5091765;28;20166;-66
2023/12/19 10:13:31;;;;;;;9.13;5.10;;;21.50;56.30;;;;;;5091217;28;20675;-70
2023/12/19 10:16:06;;;;;;;8.23;5.33;;;21.50;56.30;;;;;;5092365;28;20415;-68
2023/12/19 10:18:31;;;;;;;6.00;4.60;;;21.50;56.30;;;;;;5091588;28;20434;-68
2023/12/19 10:21:11;;;;;;;6.57;4.80;;;21.50;56.30;;;;;;5091610;28;20407;-68
2023/12/19 10:23:38;;;;;;;6.47;4.97;;;21.50;56.30;;;;;;5091580;28;20180;-69
2023/12/19 10:26:04;;;;;;;5.47;4.60;;;21.50;56.40;;;;;;5091368;28;20461;-68
2023/12/19 10:28:30;;;;;;;9.77;5.40;;;21.50;56.30;;;;;;5091605;28;20490;-67
2023/12/19 10:31:11;;;;;;;6.60;4.80;;;21.50;56.30;;;;;;5091508;28;20464;-69
2023/12/19 10:33:45;;;;;;;7.07;5.17;;;21.50;56.30;;;;;;5091335;28;20399;-69
2023/12/19 10:36:30;;;;;;;6.10;4.97;;;21.50;56.30;;;;;;5089955;28;20439;-68
2023/12/19 10:38:58;;;;;;;5.53;4.30;;;21.50;56.40;;;;;;5091353;28;20412;-69
2023/12/19 10:41:31;;;;;;;5.20;4.40;;;21.50;56.40;;;;;;5091311;28;20408;-69
2023/12/19 10:43:58;;;;;;;7.27;4.67;;;21.50;56.40;;;;;;5091156;28;20465;-68
2023/12/19 10:46:27;;;;;;;5.90;4.20;;;21.50;56.40;;;;;;5089671;28;20455;-69
2023/12/19 10:48:54;;;;;;;5.73;4.40;;;21.50;56.40;;;;;;5089654;28;20427;-70
2023/12/19 10:51:42;;;;;;;6.53;4.57;;;21.50;56.40;;;;;;5091278;28;20461;-69
2023/12/19 10:54:12;;;;;;;6.60;4.70;;;21.50;56.40;;;;;;5091018;28;20978;-68
2023/12/19 10:57:00;;;;;;;5.87;4.43;;;21.50;56.40;;;;;;5089465;28;20444;-68
2023/12/19 10:59:49;;;;;;;7.17;5.50;;;21.50;56.30;;;;;;5090826;28;20483;-66
2023/12/19 11:02:28;;;;;;;6.90;4.40;;;21.50;56.30;;;;;;5090866;28;20416;-68
2023/12/19 11:05:05;;;;;;;6.20;4.63;;;21.50;56.30;;;;;;5090741;28;20439;-69
2023/12/19 11:07:33;;;;;;;5.93;5.07;;;21.40;56.30;;;;;;5090741;28;21044;-69
2023/12/19 11:10:05;;;;;;;4.80;4.13;;;21.50;56.40;;;;;;5090586;28;20415;-69
2023/12/19 11:12:35;;;;;;;6.87;5.10;;;21.50;56.40;;;;;;5090210;28;20400;-68
2023/12/19 11:15:02;;;;;;;6.33;4.40;;;21.40;56.30;;;;;;5090564;28;20480;-68
2023/12/19 11:17:38;;;;;;;5.83;4.77;;;21.40;56.30;;;;;;5090330;28;20566;-69
2023/12/19 11:20:19;;;;;;;6.20;4.90;;;21.40;56.30;;;;;;5090646;28;20779;-68
2023/12/19 11:22:59;;;;;;;5.00;4.30;;;21.40;56.30;;;;;;5090344;28;20399;-68
2023/12/19 11:25:30;;;;;;;5.77;4.40;;;21.40;56.30;;;;;;5090371;28;20447;-68
2023/12/19 11:28:01;;;;;;;5.73;4.33;;;21.40;56.30;;;;;;5090372;28;20452;-68
2023/12/19 11:30:37;;;;;;;5.60;5.00;;;21.40;56.30;;;;;;5090747;28;20894;-69
2023/12/19 11:33:12;;;;;;;5.57;4.33;;;21.40;56.30;;;;;;5090508;28;20460;-68
2023/12/19 11:35:39;;;;;;;6.20;4.90;;;21.40;56.90;;;;;;5090288;28;20871;-69
2023/12/19 11:38:13;;;;;;;5.00;4.20;;;21.40;56.30;;;;;;5090499;28;20493;-68
2023/12/19 11:40:45;;;;;;;5.13;4.63;;;21.40;56.40;;;;;;5090511;28;20783;-68
2023/12/19 11:43:28;;;;;;;6.90;4.60;;;21.40;56.40;;;;;;5090227;28;20416;-68
2023/12/19 11:46:18;;;;;;;5.63;5.10;;;21.40;56.40;;;;;;5090091;28;20447;-68
2023/12/19 11:48:50;;;;;;;5.10;4.60;;;21.40;56.40;;;;;;5089845;28;20469;-69
2023/12/19 11:51:50;;;;;;;5.63;4.40;;;21.30;56.40;;;;;;5090187;28;20392;-68
2023/12/19 11:54:16;;;;;;;6.40;4.73;;;21.40;56.40;;;;;;5090127;28;20410;-69
2023/12/19 11:56:44;;;;;;;5.13;4.17;;;21.30;56.40;;;;;;5090276;28;20447;-69
2023/12/19 11:59:11;;;;;;;5.53;4.27;;;21.30;56.40;;;;;;5090142;28;20404;-69
2023/12/19 12:01:41;;;;;;;4.47;3.90;;;21.40;56.50;;;;;;5090022;28;21012;-68
2023/12/19 12:04:07;;;;;;;5.70;4.17;;;21.40;56.40;;;;;;5089944;28;21227;-68
2023/12/19 12:06:33;;;;;;;5.63;4.17;;;21.40;56.50;;;;;;5089908;28;20439;-69
2023/12/19 12:08:59;;;;;;;7.03;3.83;;;21.40;56.40;;;;;;5089991;28;20416;-70
2023/12/19 12:11:25;;;;;;;5.17;4.30;;;21.40;56.40;;;;;;5090108;28;20647;-67
2023/12/19 12:14:01;;;;;;;5.30;3.93;;;21.40;56.30;;;;;;5090093;28;20967;-68
2023/12/19 12:16:37;;;;;;;5.67;4.10;;;21.40;56.30;;;;;;5089981;28;20522;-68
2023/12/19 12:19:09;;;;;;;4.23;3.30;;;21.40;56.30;;;;;;5089821;28;20492;-69
2023/12/19 12:21:35;;;;;;;6.63;4.60;;;21.40;56.30;;;;;;5089875;28;20512;-69
2023/12/19 12:24:01;;;;;;;7.47;4.70;;;21.30;56.20;;;;;;5090581;28;20849;-66
2023/12/19 12:26:27;;;;;;;10.87;4.80;;;21.30;56.30;;;;;;5093475;28;20251;-68
2023/12/19 12:28:53;;;;;;;5.73;4.43;;;21.40;56.30;;;;;;5093728;28;20845;-69
2023/12/19 12:31:18;;;;;;;4.47;4.00;;;21.40;56.30;;;;;;5092568;28;20227;-69
2023/12/19 12:33:44;;;;;;;4.80;4.13;;;21.40;56.30;;;;;;5093498;28;20174;-68
2023/12/19 12:36:13;;;;;;;7.50;5.30;;;21.30;56.20;;;;;;5093555;28;20210;-68
2023/12/19 12:38:39;;;;;;;10.33;7.13;;;21.40;56.30;;;;;;5093682;28;20205;-69